Allyn, WA

4:17 AM PDT on October 20, 2014 (GMT -0700)
Happy Hollow Estates | Change Station
CLOSE
Current Station
Personal Weather Station
Location: Belfair, WA
Elevation: 203 ft
Nearby Weather Stations

Elev 203 ft 47.38 °N, 122.92 °W | Updated 4 seconds ago

Rain
Rain
57.0 °F
Feels Like 57.0 °F
N
0.7
Wind Variable Wind from West
Gusts 3.1 mph

Today
High -- | Low -- °F
--% Chance of Precip.
Yesterday
High -- | Low -- °F
Precip. -- in
7:37 AM 6:14 PM
Waning Crescent, 11% visible
Pressure 29.71 in
Visibility 4.0 miles
Clouds Mostly Cloudy 1500 ft
Mostly Cloudy 2700 ft
Overcast 3600 ft
Dew Point 57 °F
Humidity 99%
Rainfall 0.00 in
Snow Depth Not available.
UV 0 out of 12
Pollen .40 out of 12
PM2.5 Good
Flu Activity Sporadic
METAR KPWT 201055Z AUTO 16004KT 4SM BKN015 BKN027 OVC036 14/13 A2971 RMK AO1 P0005

More Conditions Fewer Conditions

Pressure 29.71 in
Visibility 4.0 miles
Clouds Mostly Cloudy 1500 ft
Mostly Cloudy 2700 ft
Overcast 3600 ft
Dew Point 57 °F
Humidity 99%
Rainfall 0.00 in
Snow Depth Not available.
UV 0 out of 12
Pollen .40 out of 12
PM2.5 Good
Flu Activity Sporadic
METAR KPWT 201055Z AUTO 16004KT 4SM BKN015 BKN027 OVC036 14/13 A2971 RMK AO1 P0005

More Conditions Fewer Conditions

10-Day Weather Forecast

Almanac

Astronomy

Oct. 20, 2014 Rise Set
Actual Time 7:37 AM PDT 6:14 PM PDT
Civil Twilight 7:06 AM PDT 6:45 PM PDT
Nautical Twilight 6:30 AM PDT 7:21 PM PDT
Astronomical Twilight 5:54 AM PDT 7:56 PM PDT
Moon 4:18 AM PDT 4:50 PM PDT
Length of Visible Light 11h 39m
Length of Day
10h 36m
Waning Crescent, 11% of the Moon is Illuminated
Today
Waning Crescent
Oct 23
New
Oct 30
First Quarter
Nov 6
Full
Nov 14
Last Quarter

Today's Extremes

State Highs State Lows

Community

WunderPhotos

Upload Photos

1,763,338 photos uploaded!

Nearby

Air Quality

  Air Quality AQ Index Pollutant
Yesterday Good
PM2.5
Current Good
PM2.5

Snow Depth

Station Depth Elevation
Dungeness 0 in 4100 ft
Waterhole 0 in 5000 ft
Mount Gardner 0 in 3000 ft
Alpine Meadows 0 in 3500 ft
Meadows Pass 0 in 3500 ft

Earthquake Activity

City Distance Mag. Time & Date
No recent earthquake activity has been reported nearby.
Minimum magnitude displayed is 2.5.

Coastal Water Temperatures

Place Temperature
Port Townsend, WA 53.1 °F
Seattle, WA 55.0 °F
Friday Harbor, WA 51.1 °F
Tacoma, WA 55.0 °F

Nearby Weather Stations